M I D A S
Marine Information and Data Acquisition System
Tripno 2297 of the Zeeleeuw from 2012-04-26 08:26:08 to 2012-04-26 14:07:33
Back to CruiseResearch ActivitiesStationsMapUnderway DataData graphs

EquipmentUnitsComment
TimeDGPSUTC
LatitudeDGPSDM.mWGS84
LongitudeDGPSDM.mWGS84
TemperatureSBE03/SBE38deg celciusITS90
ConductivitySBE21S/mITS90
SalinitySBE21 Practical Salinity Units
ChlorophylAChelsea fluorimeterg/lCalibrated in Aceton
Missing or incorrect values are displayed as -999
Sea surface data collected by the RV Zeeleeuw from 2012-04-26 07:44:46 to 2012-04-26 14:19:11
Time Latitude Longitude Temperature Conductivity Salinity ChlorophylA
2012-04-26 07:45:52 51°13.639 2°56.017 17.1084 0.946293 6.306406 -2.458615
2012-04-26 07:46:51 51°13.638 2°56.017 17.1182 0.947117 6.312192 -2.458615
2012-04-26 07:47:52 51°13.638 2°56.017 17.1267 0.94722 6.312807 -2.458615
2012-04-26 07:48:52 51°13.638 2°56.018 17.1341 0.947838 6.317116 -2.458615
2012-04-26 07:49:51 51°13.638 2°56.018 17.1335 0.944542 6.293357 -2.458615
2012-04-26 07:50:51 51°13.637 2°56.018 17.1269 0.95309 6.354676 -2.458615
2012-04-26 07:51:51 51°13.638 2°56.018 17.1367 0.955047 6.368595 -2.458615
2012-04-26 07:52:51 51°13.638 2°56.019 17.1499 0.957416 6.385599 -2.458615
2012-04-26 07:53:52 51°13.639 2°56.02 17.1552 0.956386 6.377956 -2.458615
2012-04-26 07:54:51 51°13.638 2°56.019 17.1723 0.954841 6.366743 -2.458615
2012-04-26 07:55:52 51°13.636 2°56.018 17.175 0.954223 6.362183 -2.458615
2012-04-26 07:56:52 51°13.636 2°56.019 17.1725 0.953914 6.359966 -2.458615
2012-04-26 07:57:51 51°13.636 2°56.019 17.1892 0.95515 6.368711 -2.458615
2012-04-26 07:58:51 51°13.635 2°56.018 17.1943 0.956592 6.378935 -2.458615
2012-04-26 07:59:52 51°13.637 2°56.018 17.1923 0.956489 6.378071 -2.458615
2012-04-26 08:00:51 51°13.637 2°56.018 17.2069 0.954944 6.366859 -2.458615
2012-04-26 08:01:52 51°13.638 2°56.018 17.2203 0.955768 6.372522 -2.458615
2012-04-26 08:02:52 51°13.64 2°56.019 17.2076 0.954532 6.363404 -2.458615
2012-04-26 08:03:52 51°13.639 2°56.019 17.2258 0.955562 6.37067 -2.458615
2012-04-26 08:04:51 51°13.638 2°56.018 17.2265 0.956901 6.380029 -2.458615
2012-04-26 08:05:51 51°13.635 2°56.017 17.2279 0.958343 6.390252 -2.458615
2012-04-26 08:06:52 51°13.635 2°56.017 17.2335 0.959167 6.396041 -2.458615
2012-04-26 08:07:51 51°13.636 2°56.017 17.237 0.958343 6.389877 -2.458615
2012-04-26 08:08:52 51°13.636 2°56.017 17.2195 0.956489 6.376324 -2.458615
2012-04-26 08:09:51 51°13.636 2°56.017 17.2389 0.957622 6.384204 -2.458615
2012-04-26 08:10:51 51°13.636 2°56.017 17.254 0.958446 6.389991 -2.458615
2012-04-26 08:11:51 51°13.636 2°56.018 17.2671 0.957416 6.382476 -2.458615
2012-04-26 08:12:52 51°13.636 2°56.017 17.2722 0.955459 6.368311 -2.458615
2012-04-26 08:13:51 51°13.636 2°56.017 17.2787 0.955562 6.368801 -2.458615
2012-04-26 08:14:52 51°13.636 2°56.016 17.278 0.955562 6.368552 -2.458615
2012-04-26 08:15:52 51°13.636 2°56.016 17.2854 0.955047 6.364733 -2.458615
2012-04-26 08:16:52 51°13.636 2°56.017 17.2953 0.952575 6.346757 -2.458615
2012-04-26 08:17:52 51°13.637 2°56.016 17.3018 0.956489 6.374578 -2.458615
2012-04-26 08:18:52 51°13.637 2°56.016 17.2962 0.955871 6.369896 -2.458615
2012-04-26 08:19:52 51°13.637 2°56.017 17.296 0.951648 6.339242 -2.458615
2012-04-26 08:20:51 51°13.636 2°56.017 17.3116 0.950824 6.333088 -2.458615
2012-04-26 08:21:51 51°13.636 2°56.018 17.3189 0.953502 6.352037 -2.458615
2012-04-26 08:22:51 51°13.636 2°56.018 17.3293 0.954429 6.35856 -2.458615
2012-04-26 08:23:51 51°13.634 2°56.019 17.3324 0.954532 6.359049 -2.458615
2012-04-26 08:24:51 51°13.631 2°56.021 17.3383 0.95412 6.355847 -2.458615
2012-04-26 08:25:52 51°13.633 2°56.021 17.3284 0.953193 6.349077 -2.458615
2012-04-26 08:26:52 51°13.634 2°56.02 17.3323 0.94897 6.318441 -2.458615
2012-04-26 08:27:52 51°13.635 2°56.02 17.3333 0.951545 6.336645 -2.458615
2012-04-26 08:28:51 51°13.635 2°56.02 17.3811 0.954223 6.35584 -2.458615
2012-04-26 08:29:51 51°13.632 2°56.019 17.3599 0.952884 6.34587 -2.458615
2012-04-26 08:30:51 51°13.632 2°56.018 17.3007 0.944851 6.288066 -2.458615
2012-04-26 08:31:52 51°13.648 2°55.96 17.3551 0.956489 6.371587 -2.458615
2012-04-26 08:32:52 51°13.658 2°55.928 17.395 0.930123 6.182304 -2.458615
2012-04-26 08:33:51 51°13.667 2°55.907 17.2858 0.96545 6.435107 -2.458615
2012-04-26 08:34:51 51°13.693 2°55.819 17.337 0.957828 6.379816 -2.458615
2012-04-26 08:35:51 51°13.713 2°55.736 17.3099 0.959579 6.39212 -2.458615
2012-04-26 08:36:51 51°13.725 2°55.715 17.3356 0.928475 6.169316 -2.458615
2012-04-26 08:37:51 51°13.718 2°55.711 17.2965 0.958858 6.386327 -2.458615
2012-04-26 08:38:51 51°13.756 2°55.681 17.2379 0.916734 6.083655 -2.458615
2012-04-26 08:39:51 51°13.884 2°55.594 17.1569 0.928475 6.167629 -2.458615
2012-04-26 08:40:51 51°14.028 2°55.492 17.17 0.9328 6.198427 -2.458615
2012-04-26 08:41:51 51°14.176 2°55.373 17.1436 0.926415 6.15243 -2.458615
2012-04-26 08:42:52 51°14.333 2°55.231 17.1023 0.934551 6.209854 -2.458615
2012-04-26 08:43:52 51°14.499 2°55.08 17.2207 0.969157 6.457804 -2.458615
2012-04-26 08:44:49 51°14.645 2°54.895 17.1238 0.851754 5.618934 -2.458615
2012-04-26 08:45:48 51°14.705 2°54.607 16.9085 0.742202 4.846145 -2.458615
2012-04-26 08:46:48 51°14.602 2°54.33 17.0842 0.915601 6.072605 -2.458615
2012-04-26 08:47:48 51°14.469 2°54.073 17.0524 0.841045 5.542642 -2.458615
2012-04-26 08:48:48 51°14.326 2°53.832 17.065 0.894387 5.921079 -2.458615
2012-04-26 08:49:48 51°14.186 2°53.588 17.1037 0.890473 5.893459 -2.458615
2012-04-26 08:50:48 51°14.059 2°53.321 17.1327 0.87585 5.78892 -2.458615
2012-04-26 08:51:48 51°13.948 2°53.034 17.131 0.902007 5.975928 -2.458615
2012-04-26 08:52:48 51°13.841 2°52.742 17.1399 0.759807 4.969806 -2.458615
2012-04-26 08:53:48 51°13.726 2°52.457 17.1727 0.795533 5.220542 -2.458615
2012-04-26 08:54:48 51°13.611 2°52.172 17.1707 0.803255 5.276086 -2.458615
2012-04-26 08:55:48 51°13.497 2°51.889 17.1673 0.841868 5.547716 -2.458615
2012-04-26 08:56:48 51°13.383 2°51.608 17.1815 0.7561 4.944293 -2.458615
2012-04-26 08:57:48 51°13.28 2°51.317 17.1969 0.873585 5.773503 -2.458615
2012-04-26 08:58:48 51°13.19 2°51.012 17.2083 0.851342 5.618098 -2.458615
2012-04-26 08:59:48 51°13.087 2°50.717 17.2188 0.867921 5.734402 -2.458615
2012-04-26 09:00:48 51°12.984 2°50.422 17.2256 0.821274 5.40389 -2.458615
2012-04-26 09:01:48 51°12.867 2°50.147 17.2359 0.789561 5.181325 -2.458615
2012-04-26 09:02:48 51°12.773 2°49.85 17.2802 0.768249 5.032691 -2.458615
2012-04-26 09:03:48 51°12.708 2°49.525 17.2403 0.827247 5.448332 -2.458615
2012-04-26 09:04:48 51°12.619 2°49.215 17.1816 0.869671 5.749526 -2.458615
2012-04-26 09:05:48 51°12.539 2°48.898 17.1754 0.852989 5.631099 -2.458615
2012-04-26 09:06:48 51°12.455 2°48.584 17.213 0.874511 5.785732 -2.458615
2012-04-26 09:07:48 51°12.368 2°48.276 17.2198 0.850621 5.61518 -2.458615
2012-04-26 09:08:48 51°12.264 2°47.981 17.3156 0.75888 4.968732 -2.458615
2012-04-26 09:09:48 51°12.172 2°47.676 16.1473 0.793783 5.214927 -2.458615
2012-04-26 09:10:48 51°12.081 2°47.37 16.2703 0.856903 5.662398 -2.458615
2012-04-26 09:11:48 51°12.01 2°47.049 16.3035 0.800373 5.262846 -2.458615
2012-04-26 09:12:48 51°11.925 2°46.739 16.4402 0.83291 5.4943 -2.458615
2012-04-26 09:13:48 51°11.838 2°46.427 16.6102 0.798416 5.249552 -2.458615
2012-04-26 09:14:48 51°11.755 2°46.112 16.4727 0.818906 5.396848 -2.458615
2012-04-26 09:15:48 51°11.665 2°45.805 16.5296 0.853916 5.644617 -2.458615
2012-04-26 09:16:48 51°11.587 2°45.498 16.508 0.89727 5.955439 -2.458615
2012-04-26 09:17:48 51°11.56 2°45.317 16.5401 0.841251 5.557656 -2.458615
2012-04-26 09:18:48 51°11.571 2°45.238 16.5337 0.891812 5.919045 -2.458615
2012-04-26 09:19:48 51°11.575 2°45.217 17.2021 0.885839 5.874021 -2.458615
2012-04-26 09:20:48 51°11.58 2°45.199 16.9684 0.867612 5.745555 -2.458615
2012-04-26 09:21:48 51°11.587 2°45.18 17.0169 0.864626 5.724753 -2.458615
2012-04-26 09:22:48 51°11.597 2°45.135 17.0642 0.840427 5.553223 -2.458615
2012-04-26 09:23:48 51°11.577 2°45.045 17.1051 0.857418 5.674371 -2.458615
2012-04-26 09:24:47 51°11.522 2°45.013 17.1296 0.88275 5.855668 -2.458615
2012-04-26 09:25:48 51°11.49 2°45.016 17.1698 0.892842 5.925002 -2.458615
2012-04-26 09:26:48 51°11.475 2°45.016 17.2006 0.915602 6.092469 -2.458615
2012-04-26 09:27:47 51°11.466 2°45.013 17.2371 0.882441 5.856217 -2.458615
2012-04-26 09:28:49 51°11.391 2°45.026 17.2806 0.877292 5.819722 -2.458615
2012-04-26 09:29:48 51°11.29 2°45.004 17.3053 0.875439 5.808782 -2.458615
2012-04-26 09:30:48 51°11.221 2°44.979 17.3449 0.877498 5.821989 -2.458615
2012-04-26 09:31:48 51°11.166 2°44.947 17.3742 0.88172 5.853942 -2.458615
2012-04-26 09:32:48 51°11.115 2°44.911 17.4117 0.901287 5.994552 -2.458615
2012-04-26 09:33:48 51°11.067 2°44.871 17.4334 0.877601 5.826721 -2.458615
2012-04-26 09:34:48 51°11.019 2°44.836 17.4692 0.891915 5.929301 -2.458615
2012-04-26 09:35:48 51°10.973 2°44.801 17.4962 0.839706 5.557136 -2.458615
2012-04-26 09:36:48 51°10.928 2°44.775 17.5368 0.928475 6.191582 -2.458615
2012-04-26 09:37:48 51°10.883 2°44.75 17.5447 0.89758 5.971203 -2.458615
2012-04-26 09:38:48 51°10.835 2°44.728 17.5854 0.886252 5.891025 -2.458615
2012-04-26 09:39:48 51°10.788 2°44.716 17.624 0.896962 5.967954 -2.458615
2012-04-26 09:40:48 51°10.744 2°44.715 17.6165 0.898403 5.98003 -2.458615
2012-04-26 09:41:48 51°10.702 2°44.722 17.6466 0.920133 6.134889 -2.458615
2012-04-26 09:42:48 51°10.662 2°44.734 17.6671 0.880897 5.856101 -2.458615
2012-04-26 09:43:48 51°10.617 2°44.756 17.7031 0.902729 6.013475 -2.458615
2012-04-26 09:44:48 51°10.575 2°44.786 17.7173 0.923223 6.161649 -2.458615
2012-04-26 09:45:48 51°10.531 2°44.807 17.7461 0.902626 6.014746 -2.458615
2012-04-26 09:46:48 51°10.485 2°44.804 17.7699 0.889135 5.919186 -2.458615
2012-04-26 09:47:48 51°10.44 2°44.768 17.793 0.875954 5.826508 -2.458615
2012-04-26 09:48:48 51°10.411 2°44.696 17.8016 0.847944 5.626539 -2.458615
2012-04-26 09:49:48 51°10.393 2°44.61 17.832 0.829718 5.497924 -2.458615
2012-04-26 09:50:48 51°10.389 2°44.549 17.8561 0.82735 5.482258 -2.458615
2012-04-26 09:51:48 51°10.389 2°44.508 17.8741 0.752703 4.954305 -2.458615
2012-04-26 09:52:48 51°10.393 2°44.478 17.893 0.837235 5.554279 -2.458615
2012-04-26 09:53:48 51°10.401 2°44.458 17.9214 0.686714 4.490953 -2.458615
2012-04-26 09:54:46 51°10.413 2°44.44 17.9236 0.614353 3.986816 -2.458615
2012-04-26 09:55:46 51°10.461 2°44.309 17.9277 0.814685 5.395163 -2.458615
2012-04-26 09:56:47 51°10.51 2°44.211 17.9492 0.736849 4.845354 -2.458615
2012-04-26 09:57:47 51°10.529 2°44.146 17.9657 0.817568 5.416732 -2.458615
2012-04-26 09:58:48 51°10.539 2°44.097 17.9748 0.767735 5.064682 -2.458615
2012-04-26 09:59:48 51°10.546 2°44.058 17.993 0.816024 5.40798 -2.458615
2012-04-26 10:00:48 51°10.558 2°43.929 17.9969 0.824467 5.468628 -2.458615
2012-04-26 10:01:48 51°10.592 2°43.655 18.0119 0.634218 4.128808 -2.458615
2012-04-26 10:02:48 51°10.605 2°43.341 18.0162 0.744158 4.900474 -2.458615
2012-04-26 10:03:48 51°10.572 2°43.025 18.028 0.828689 5.501741 -2.458615
2012-04-26 10:04:48 51°10.542 2°42.705 18.0421 0.711215 4.670338 -2.458615
2012-04-26 10:05:48 51°10.512 2°42.385 18.0435 0.79852 5.287396 -2.458615
2012-04-26 10:06:48 51°10.488 2°42.062 18.0467 0.775148 5.122912 -2.458615
2012-04-26 10:07:48 51°10.482 2°41.732 18.0491 0.724701 4.766997 -2.458615
2012-04-26 10:08:48 51°10.461 2°41.405 18.0556 0.733658 4.830368 -2.458615
2012-04-26 10:09:47 51°10.435 2°41.084 18.0533 0.756204 4.990895 -2.458615
2012-04-26 10:10:48 51°10.415 2°40.749 18.0569 0.776795 5.137126 -2.458615
2012-04-26 10:11:47 51°10.401 2°40.44 18.0705 0.75013 4.949964 -2.458615
2012-04-26 10:12:48 51°10.386 2°40.199 18.0837 0.80789 5.360682 -2.458615
2012-04-26 10:13:48 51°10.371 2°40.051 18.082 0.8256 5.487183 -2.458615
2012-04-26 10:14:48 51°10.365 2°39.945 18.0999 0.835691 5.560785 -2.458615
2012-04-26 10:15:48 51°10.361 2°39.858 18.1181 0.828689 5.511629 -2.458615
2012-04-26 10:16:47 51°10.363 2°39.781 18.1376 0.818392 5.438548 -2.458615
2012-04-26 10:17:47 51°10.365 2°39.708 18.1387 0.829616 5.519449 -2.458615
2012-04-26 10:18:47 51°10.37 2°39.638 18.1474 0.804389 5.339227 -2.458615
2012-04-26 10:19:47 51°10.372 2°39.57 18.166 0.847121 5.645651 -2.458615
2012-04-26 10:20:48 51°10.373 2°39.504 18.1801 0.822305 5.468635 -2.458615
2012-04-26 10:21:48 51°10.373 2°39.437 18.1905 0.82941 5.51994 -2.458615
2012-04-26 10:22:48 51°10.375 2°39.372 18.1877 0.764441 5.057304 -2.458615
2012-04-26 10:23:48 51°10.379 2°39.309 18.2098 0.772471 5.115331 -2.458615
2012-04-26 10:24:48 51°10.379 2°39.245 18.2142 0.847636 5.651796 -2.458615
2012-04-26 10:25:47 51°10.377 2°39.182 18.2261 0.833426 5.550846 -2.458615
2012-04-26 10:26:48 51°10.374 2°39.118 18.2409 0.847842 5.654613 -2.458615
2012-04-26 10:27:48 51°10.373 2°39.054 18.2456 0.851858 5.683283 -2.458615
2012-04-26 10:28:48 51°10.373 2°38.991 18.2592 0.833117 5.549404 -2.458615
2012-04-26 10:29:48 51°10.375 2°38.928 18.2637 0.828072 5.513861 -2.458615
2012-04-26 10:30:47 51°10.376 2°38.867 18.2774 0.818701 5.446779 -2.458615
2012-04-26 10:31:48 51°10.377 2°38.803 18.2834 0.814171 5.415063 -2.458615
2012-04-26 10:32:47 51°10.379 2°38.741 18.2965 0.811803 5.39826 -2.458615
2012-04-26 10:33:47 51°10.381 2°38.681 18.3063 0.839295 5.595614 -2.458615
2012-04-26 10:34:47 51°10.381 2°38.621 18.3047 0.833117 5.551271 -2.458615
2012-04-26 10:35:47 51°10.381 2°38.558 18.3144 0.83147 5.53981 -2.458615
2012-04-26 10:36:48 51°10.379 2°38.492 18.3293 0.821276 5.467442 -2.458615
2012-04-26 10:37:47 51°10.375 2°38.427 18.335 0.84568 5.642916 -2.458615
2012-04-26 10:38:47 51°10.37 2°38.36 18.3466 0.839707 5.600226 -2.458615
2012-04-26 10:39:47 51°10.367 2°38.291 18.3445 0.821585 5.470409 -2.458615
2012-04-26 10:40:48 51°10.364 2°38.223 18.3613 0.823644 5.485895 -2.458615
2012-04-26 10:41:47 51°10.362 2°38.156 18.3748 0.825291 5.497789 -2.458615
2012-04-26 10:42:48 51°10.359 2°38.091 18.3768 0.814892 5.423537 -2.458615
2012-04-26 10:43:47 51°10.358 2°38.026 18.3803 0.832293 5.54856 -2.458615
2012-04-26 10:44:48 51°10.356 2°37.96 18.3896 0.823438 5.4854 -2.458615
2012-04-26 10:45:48 51°10.353 2°37.891 18.4034 0.832705 5.552059 -2.458615
2012-04-26 10:46:47 51°10.352 2°37.825 18.4014 0.824468 5.49331 -2.458615
2012-04-26 10:47:48 51°10.348 2°37.757 18.41 0.834147 5.562384 -2.458615
2012-04-26 10:48:47 51°10.348 2°37.685 18.4307 0.804389 5.350328 -2.458615
2012-04-26 10:49:47 51°10.341 2°37.591 18.4275 0.724598 4.783153 -2.458615
2012-04-26 10:50:47 51°10.319 2°37.506 18.4292 0.772677 5.124696 -2.458615
2012-04-26 10:51:47 51°10.294 2°37.428 18.4345 0.829101 5.527459 -2.458615
2012-04-26 10:52:47 51°10.27 2°37.341 18.4391 0.841458 5.616884 -2.458615
2012-04-26 10:53:48 51°10.246 2°37.249 18.4555 0.792446 5.266144 -2.458615
2012-04-26 10:54:48 51°10.219 2°37.157 18.4479 0.828689 5.525057 -2.458615
2012-04-26 10:55:48 51°10.192 2°37.059 18.4681 0.83981 5.605737 -2.458615
2012-04-26 10:56:48 51°10.169 2°36.957 18.4713 0.836103 5.579272 -2.458615
2012-04-26 10:57:48 51°10.147 2°36.854 18.4927 0.827763 5.518969 -2.458615
2012-04-26 10:58:48 51°10.125 2°36.754 18.4894 0.820452 5.467073 -2.458615
2012-04-26 10:59:48 51°10.1 2°36.656 18.4872 0.790901 5.256275 -2.458615
2012-04-26 11:00:48 51°10.07 2°36.562 18.4885 0.816024 5.43583 -2.458615
2012-04-26 11:01:48 51°10.04 2°36.464 18.4981 0.846812 5.656412 -2.458615
2012-04-26 11:02:48 51°10.016 2°36.363 18.512 0.854741 5.713337 -2.458615
2012-04-26 11:03:48 51°9.995 2°36.258 18.5084 0.837133 5.586985 -2.458615
2012-04-26 11:04:48 51°9.97 2°36.159 18.5193 0.840016 5.607102 -2.458615
2012-04-26 11:05:49 51°9.942 2°36.06 18.535 0.851446 5.689787 -2.458615
2012-04-26 11:06:47 51°9.914 2°35.965 18.5259 0.847018 5.658451 -2.458615
2012-04-26 11:07:48 51°9.886 2°35.864 18.5448 0.841973 5.622024 -2.458615
2012-04-26 11:08:48 51°9.862 2°35.76 18.5468 0.843311 5.631292 -2.458615
2012-04-26 11:09:48 51°9.843 2°35.656 18.5469 0.83425 5.566209 -2.458615
2012-04-26 11:10:48 51°9.823 2°35.557 18.5435 0.857934 5.735928 -2.458615
2012-04-26 11:11:48 51°9.801 2°35.463 18.5605 0.857213 5.731204 -2.458615
2012-04-26 11:12:48 51°9.779 2°35.372 18.5719 0.846503 5.653747 -2.458615
2012-04-26 11:13:48 51°9.754 2°35.283 18.563 0.850725 5.684161 -2.458615
2012-04-26 11:14:48 51°9.732 2°35.189 18.5775 0.866892 5.799977 -2.458615
2012-04-26 11:15:48 51°9.715 2°35.099 18.5668 0.857522 5.732628 -2.458615
2012-04-26 11:16:48 51°9.707 2°35.033 18.5933 0.866069 5.793824 -2.458615
2012-04-26 11:17:48 51°9.702 2°34.982 18.5994 0.862156 5.765353 -2.458615
2012-04-26 11:18:48 51°9.699 2°34.937 18.5987 0.86092 5.756701 -2.458615
2012-04-26 11:19:48 51°9.699 2°34.897 18.6003 0.862156 5.765353 -2.458615
2012-04-26 11:20:48 51°9.703 2°34.865 18.5984 0.838575 5.595546 -2.458615
2012-04-26 11:21:48 51°9.711 2°34.844 18.6062 0.83703 5.585361 -2.458615
2012-04-26 11:22:48 51°9.719 2°34.836 18.6127 0.84084 5.612008 -2.458615
2012-04-26 11:23:48 51°9.726 2°34.835 18.6144 0.850519 5.680994 -2.458615
2012-04-26 11:24:48 51°9.732 2°34.837 18.6301 0.826424 5.508293 -2.458615
2012-04-26 11:25:48 51°9.734 2°34.84 18.6209 0.837854 5.589605 -2.458615
2012-04-26 11:26:48 51°9.737 2°34.849 18.6333 0.822305 5.478708 -2.458615
2012-04-26 11:27:48 51°9.743 2°34.862 18.6324 0.809846 5.386852 -2.458615
2012-04-26 11:28:48 51°9.747 2°34.872 18.6345 0.77731 5.157877 -2.458615
2012-04-26 11:29:49 51°9.75 2°34.884 18.6375 0.820864 5.46677 -2.458615
2012-04-26 11:30:48 51°9.753 2°34.895 18.631 0.800683 5.324288 -2.458615
2012-04-26 11:31:49 51°9.755 2°34.909 18.6324 0.829719 5.534076 -2.458615
2012-04-26 11:32:48 51°9.756 2°34.921 18.6427 0.828587 5.525086 -2.458615
2012-04-26 11:33:48 51°9.759 2°34.934 18.6383 0.865966 5.792854 -2.458615
2012-04-26 11:34:48 51°9.761 2°34.948 18.6383 0.835177 5.572961 -2.458615
2012-04-26 11:35:48 51°9.764 2°34.963 18.6499 0.836206 5.580452 -2.458615
2012-04-26 11:36:48 51°9.768 2°34.978 18.6424 0.831779 5.54927 -2.458615
2012-04-26 11:37:48 51°9.771 2°34.992 18.6511 0.820143 5.467029 -2.458615
2012-04-26 11:38:48 51°9.775 2°35.008 18.649 0.82488 5.501488 -2.458615
2012-04-26 11:39:48 51°9.779 2°35.025 18.6521 0.834044 5.567712 -2.458615
2012-04-26 11:40:48 51°9.782 2°35.042 18.6504 0.838163 5.597474 -2.458615
2012-04-26 11:41:48 51°9.785 2°35.057 18.6504 0.823541 5.493535 -2.458615
2012-04-26 11:42:47 51°9.789 2°35.073 18.6435 0.833117 5.561178 -2.458615
2012-04-26 11:43:48 51°9.792 2°35.088 18.6491 0.816436 5.443739 -2.458615
2012-04-26 11:44:48 51°9.797 2°35.104 18.6579 0.81273 5.41699 -2.458615
2012-04-26 11:45:48 51°9.801 2°35.12 18.6559 0.841252 5.621758 -2.458615
2012-04-26 11:46:47 51°9.805 2°35.136 18.6623 0.767941 5.098376 -2.458615
2012-04-26 11:47:48 51°9.808 2°35.153 18.6638 0.855462 5.725553 -2.458615
2012-04-26 11:48:48 51°9.811 2°35.169 18.6694 0.840737 5.619177 -2.458615
2012-04-26 11:49:48 51°9.814 2°35.186 18.6629 0.783797 5.211508 -2.458615
2012-04-26 11:50:48 51°9.818 2°35.202 18.6737 0.776487 5.160702 -2.458615
2012-04-26 11:51:48 51°9.823 2°35.22 18.6706 0.789254 5.251394 -2.458615
2012-04-26 11:52:48 51°9.828 2°35.24 18.6735 0.815716 5.44171 -2.458615
2012-04-26 11:53:48 51°9.833 2°35.261 18.6699 0.809538 5.398114 -2.458615
2012-04-26 11:54:48 51°9.837 2°35.281 18.6754 0.820555 5.478016 -2.458615
2012-04-26 11:55:49 51°9.843 2°35.304 18.6737 0.810979 5.40865 -2.458615
2012-04-26 11:56:48 51°9.847 2°35.325 18.6797 0.820555 5.477799 -2.458615
2012-04-26 11:57:48 51°9.852 2°35.348 18.6775 0.814789 5.436691 -2.458615
2012-04-26 11:58:48 51°9.857 2°35.37 18.6788 0.829719 5.54573 -2.458615
2012-04-26 11:59:48 51°9.862 2°35.391 18.6821 0.836207 5.592427 -2.458615
2012-04-26 12:00:48 51°9.867 2°35.413 18.6785 0.837133 5.599641 -2.458615
2012-04-26 12:01:48 51°9.872 2°35.433 18.6752 0.841664 5.63254 -2.458615
2012-04-26 12:02:48 51°9.878 2°35.454 18.6821 0.847328 5.674283 -2.458615
2012-04-26 12:03:49 51°9.882 2°35.474 18.6883 0.8429 5.643219 -2.458615
2012-04-26 12:04:48 51°9.886 2°35.495 18.6881 0.830131 5.551114 -2.458615
2012-04-26 12:05:48 51°9.891 2°35.52 18.6952 0.83044 5.553995 -2.458615
2012-04-26 12:06:49 51°9.897 2°35.549 18.7003 0.843518 5.648336 -2.458615
2012-04-26 12:07:48 51°9.901 2°35.577 18.7029 0.840325 5.626384 -2.458615
2012-04-26 12:08:48 51°9.905 2°35.607 18.7015 0.832603 5.570638 -2.458615
2012-04-26 12:09:48 51°9.908 2°35.639 18.6952 0.832397 5.569601 -2.458615
2012-04-26 12:10:49 51°9.91 2°35.672 18.6988 0.826116 5.523376 -2.458615
2012-04-26 12:11:48 51°9.912 2°35.702 18.6982 0.808199 5.396355 -2.458615
2012-04-26 12:12:48 51°9.945 2°35.73 18.6946 0.775869 5.166244 -2.458615
2012-04-26 12:13:48 51°9.972 2°35.818 18.5287 0.912926 6.156555 -2.458615
2012-04-26 12:14:48 51°9.937 2°35.908 18.6244 0.896448 6.036287 -2.458615
2012-04-26 12:15:49 51°9.854 2°36.021 18.6044 0.970807 6.576168 -2.458615
2012-04-26 12:16:48 51°9.786 2°36.081 18.6557 0.998103 6.776168 -2.458615
2012-04-26 12:17:48 51°9.736 2°36.124 18.637 0.963907 6.527937 -2.458615
2012-04-26 12:18:48 51°9.688 2°36.158 18.6584 0.982653 6.672843 -2.458615
2012-04-26 12:19:48 51°9.635 2°36.182 18.6752 0.971426 6.589736 -2.458615
2012-04-26 12:20:48 51°9.58 2°36.189 18.6731 0.946501 6.409316 -2.458615
2012-04-26 12:21:48 51°9.529 2°36.171 18.6813 0.899229 6.062704 -2.458615
2012-04-26 12:22:48 51°9.487 2°36.128 18.6927 0.905099 6.111128 -2.458615
2012-04-26 12:23:48 51°9.454 2°36.07 18.7014 0.906232 6.117889 -2.458615
2012-04-26 12:24:48 51°9.419 2°36.01 18.6961 0.940733 6.37022 -2.458615
2012-04-26 12:25:48 51°9.389 2°35.944 18.7167 0.858861 5.775694 -2.458615
2012-04-26 12:26:48 51°9.357 2°35.877 18.7269 0.884914 5.965777 -2.458615
2012-04-26 12:27:48 51°9.321 2°35.818 18.7303 0.876264 5.902164 -2.458615
2012-04-26 12:28:48 51°9.286 2°35.761 18.7264 0.89511 6.040194 -2.458615
2012-04-26 12:29:48 51°9.253 2°35.7 18.7529 0.863701 5.812652 -2.458615
2012-04-26 12:30:48 51°9.222 2°35.636 18.757 0.872557 5.875562 -2.458615
2012-04-26 12:31:48 51°9.189 2°35.569 18.7592 0.841767 5.654645 -2.458615
2012-04-26 12:32:48 51°9.154 2°35.511 18.7528 0.891196 6.011443 -2.458615
2012-04-26 12:33:48 51°9.113 2°35.458 18.7685 0.89305 6.022483 -2.458615
2012-04-26 12:34:48 51°9.061 2°35.441 18.7764 0.896037 6.045712 -2.458615
2012-04-26 12:35:48 51°9.003 2°35.46 18.7773 0.890372 6.002711 -2.458615
2012-04-26 12:36:48 51°8.949 2°35.46 18.7889 0.939085 6.354532 -2.458615
2012-04-26 12:37:48 51°8.911 2°35.454 18.7861 0.941866 6.379368 -2.458615
2012-04-26 12:38:48 51°8.883 2°35.439 18.7762 0.960714 6.518307 -2.458615
2012-04-26 12:39:48 51°8.86 2°35.418 18.7954 0.85052 5.720468 -2.458615
2012-04-26 12:40:48 51°8.847 2°35.388 18.8025 0.798418 5.346167 -2.458615
2012-04-26 12:41:48 51°8.865 2°35.331 18.8118 0.88615 5.97999 -2.458615
2012-04-26 12:42:48 51°8.892 2°35.314 18.824 0.856905 5.767313 -2.458615
2012-04-26 12:43:48 51°8.912 2°35.324 18.8376 0.781841 5.226606 -2.458615
2012-04-26 12:44:48 51°8.929 2°35.345 18.8344 0.84671 5.694077 -2.458615
2012-04-26 12:45:48 51°8.981 2°35.313 18.8233 0.86123 5.797558 -2.458615
2012-04-26 12:46:48 51°9.055 2°35.338 18.8094 0.999442 6.802778 -2.458615
2012-04-26 12:47:48 51°9.106 2°35.37 18.832 0.88234 5.947713 -2.458615
2012-04-26 12:48:48 51°9.143 2°35.396 18.8358 0.874514 5.892784 -2.458615
2012-04-26 12:49:48 51°9.17 2°35.416 18.8351 0.868438 5.854288 -2.458615
2012-04-26 12:50:48 51°9.191 2°35.443 18.8354 0.745498 4.968216 -2.458615
2012-04-26 12:51:48 51°9.225 2°35.451 18.8367 0.871527 5.880087 -2.458615
2012-04-26 12:52:48 51°9.3 2°35.448 18.8369 0.8844 5.972544 -2.458615
2012-04-26 12:53:48 51°9.445 2°35.418 18.8398 0.913029 6.17836 -2.458615
2012-04-26 12:54:48 51°9.645 2°35.45 18.8336 0.804802 5.396597 -2.458615
2012-04-26 12:55:48 51°9.85 2°35.484 18.8603 1.005313 6.85351 -2.458615
2012-04-26 12:56:48 51°10.054 2°35.514 18.8428 1.010155 6.88921 -2.458615
2012-04-26 12:57:48 51°10.257 2°35.533 18.8228 0.907056 6.135755 -2.458615
2012-04-26 12:58:48 51°10.458 2°35.565 18.6926 1.281444 8.923378 -2.458615
2012-04-26 12:59:48 51°10.651 2°35.69 18.8427 1.43503 10.074762 -2.458615
2012-04-26 13:00:48 51°10.842 2°35.823 18.7267 0.922195 6.244857 -2.458615
2012-04-26 13:01:48 51°11.033 2°35.963 18.8168 1.052492 7.205643 -2.458615
2012-04-26 13:02:48 51°11.222 2°36.108 18.7737 0.859788 5.799532 -2.458615
2012-04-26 13:03:48 51°11.412 2°36.248 18.8038 0.920136 6.243598 -2.458615
2012-04-26 13:04:48 51°11.596 2°36.407 18.7634 0.433545 2.789663 -2.458615
2012-04-26 13:05:48 51°11.772 2°36.591 18.7959 0.97431 6.632388 -2.458615
2012-04-26 13:06:48 51°11.943 2°36.789 18.8013 0.499193 3.241378 -2.458615
2012-04-26 13:07:48 51°12.121 2°36.961 18.7864 0.8844 5.975295 -2.458615
2012-04-26 13:08:48 51°12.296 2°37.149 18.7861 0.950621 6.462966 -2.458615
2012-04-26 13:09:48 51°12.449 2°37.385 18.8351 1.065678 7.304338 -2.458615
2012-04-26 13:10:48 51°12.607 2°37.61 18.7434 1.405031 9.85687 -2.458615
2012-04-26 13:11:48 51°12.768 2°37.833 18.732 1.193746 8.257537 -2.458615
2012-04-26 13:12:48 51°12.929 2°38.052 18.6484 0.61775 4.06615 -2.458615
2012-04-26 13:13:48 51°13.078 2°38.296 18.7665 0.844239 5.683381 -2.458615
2012-04-26 13:14:48 51°13.222 2°38.547 18.7979 0.981211 6.680309 -2.458615
2012-04-26 13:15:48 51°13.366 2°38.795 18.729 0.982241 6.691748 -2.458615
2012-04-26 13:16:48 51°13.511 2°39.045 18.7345 1.430391 10.044918 -2.458615
2012-04-26 13:17:48 51°13.655 2°39.291 18.7306 1.247538 8.656189 -2.458615
2012-04-26 13:18:48 51°13.759 2°39.586 18.7414 0.97019 6.601271 -2.458615
2012-04-26 13:19:48 51°13.832 2°39.911 18.8006 1.091021 7.491996 -2.458615
2012-04-26 13:20:48 51°13.906 2°40.234 18.7253 1.197043 8.281183 -2.458615
2012-04-26 13:21:48 51°13.956 2°40.573 18.7685 1.039409 7.108856 -2.458615
2012-04-26 13:22:48 51°14.012 2°40.914 18.7039 0.603855 3.968442 -2.458615
2012-04-26 13:23:48 51°14.07 2°41.253 18.7858 0.954637 6.486382 -2.458615
2012-04-26 13:24:48 51°14.13 2°41.591 18.7419 0.889961 6.010525 -2.458615
2012-04-26 13:25:48 51°14.196 2°41.928 18.7616 0.94475 6.410509 -2.458615
2012-04-26 13:26:48 51°14.26 2°42.266 18.7866 0.928992 6.2954 -2.458615
2012-04-26 13:27:48 51°14.333 2°42.598 18.7593 0.959375 6.516473 -2.458615
2012-04-26 13:28:48 51°14.412 2°42.924 18.8246 0.866687 5.840905 -2.458615
2012-04-26 13:29:48 51°14.568 2°43.164 18.7963 0.587491 3.850377 -2.458615
2012-04-26 13:30:48 51°14.744 2°43.37 18.7802 1.246301 8.639292 -2.458615
2012-04-26 13:31:48 51°14.89 2°43.629 18.7821 1.033435 7.051405 -2.458615
2012-04-26 13:32:48 51°14.939 2°43.967 18.7376 0.939394 6.366059 -2.458615
2012-04-26 13:33:48 51°14.936 2°44.315 18.7874 0.922607 6.243861 -2.458615
2012-04-26 13:34:48 51°14.915 2°44.662 18.7587 0.932082 6.311995 -2.458615
2012-04-26 13:35:48 51°14.881 2°45.009 18.7776 1.037555 7.078315 -2.458615
2012-04-26 13:36:48 51°14.829 2°45.343 18.7829 0.958139 6.496647 -2.458615
2012-04-26 13:37:48 51°14.81 2°45.69 18.7968 0.921783 6.231883 -2.458615
2012-04-26 13:38:48 51°14.8 2°46.041 18.7711 0.964525 6.544838 -2.458615
2012-04-26 13:39:48 51°14.777 2°46.39 18.8028 1.098439 7.526442 -2.458615
2012-04-26 13:40:48 51°14.765 2°46.736 18.7524 0.807582 5.402999 -2.458615
2012-04-26 13:41:48 51°14.754 2°47.085 18.8208 0.969366 6.575217 -2.458615
2012-04-26 13:42:48 51°14.745 2°47.436 18.8014 0.926932 6.267342 -2.458615
2012-04-26 13:43:48 51°14.744 2°47.79 18.8091 0.949076 6.431293 -2.458615
2012-04-26 13:44:48 51°14.738 2°48.142 18.7687 0.924255 6.249862 -2.458615
2012-04-26 13:45:48 51°14.762 2°48.493 18.8262 1.050329 7.172434 -2.458615
2012-04-26 13:46:48 51°14.789 2°48.84 18.8361 0.890887 6.006443 -2.458615
2012-04-26 13:47:48 51°14.808 2°49.19 18.8783 0.954431 6.465328 -2.458615
2012-04-26 13:48:48 51°14.826 2°49.539 18.8626 0.96298 6.528076 -2.458615
2012-04-26 13:49:48 51°14.843 2°49.889 18.8814 0.910454 6.147326 -2.458615
2012-04-26 13:50:48 51°14.865 2°50.239 18.8827 0.896242 6.043947 -2.458615
2012-04-26 13:51:48 51°14.886 2°50.59 18.856 0.946295 6.407687 -2.458615
2012-04-26 13:52:48 51°14.906 2°50.94 18.877 0.911072 6.150709 -2.458615
2012-04-26 13:53:48 51°14.922 2°51.292 18.909 0.986464 6.700182 -2.458615
2012-04-26 13:54:48 51°14.94 2°51.64 18.8545 0.91653 6.187021 -2.458615
2012-04-26 13:55:48 51°14.958 2°51.987 18.8958 0.906335 6.114853 -2.458615
2012-04-26 13:56:48 51°14.98 2°52.335 18.8495 0.874616 5.885183 -2.458615
2012-04-26 13:57:48 51°15.005 2°52.683 18.8848 0.851653 5.716776 -2.458615
2012-04-26 13:58:48 51°15.023 2°53.032 13.1411 0.951238 6.439482 -2.458615
2012-04-26 13:59:48 51°15.036 2°53.38 15.4469 0.962671 6.522697 -2.458615
2012-04-26 14:00:48 51°15.065 2°53.733 15.6978 0.951238 6.440124 -2.458615
2012-04-26 14:01:48 51°15.086 2°54.081 16.3976 1.088136 7.44601 -2.458615
2012-04-26 14:02:48 51°15.019 2°54.396 16.3105 1.147068 7.879244 -2.458615
2012-04-26 14:03:48 51°14.888 2°54.628 16.1977 0.94063 6.360198 -2.458615
2012-04-26 14:04:48 51°14.744 2°54.834 16.2354 1.387402 9.672694 -2.458615
2012-04-26 14:05:48 51°14.594 2°55.027 16.635 1.100499 7.529339 -2.458615
2012-04-26 14:06:50 51°14.421 2°55.148 16.533 0.937849 6.339208 -2.458615
2012-04-26 14:07:51 51°14.301 2°55.251 16.6164 0.946603 6.404442 -2.458615
2012-04-26 14:08:51 51°14.187 2°55.35 16.4995 0.937231 6.338378 -2.458615
2012-04-26 14:09:51 51°14.066 2°55.467 16.8646 0.90685 6.117613 -2.458615
2012-04-26 14:10:51 51°13.952 2°55.554 16.7512 0.911175 6.14888 -2.458615
2012-04-26 14:11:51 51°13.852 2°55.626 16.7971 0.916015 6.184145 -2.458615
2012-04-26 14:12:51 51°13.763 2°55.71 16.928 0.91169 6.15274 -2.458615
2012-04-26 14:13:51 51°13.703 2°55.816 16.8907 0.908497 6.129447 -2.458615
2012-04-26 14:14:51 51°13.659 2°55.914 16.8519 0.907056 6.118863 -2.458615
2012-04-26 14:15:52 51°13.641 2°56 17.1468 0.885017 5.958908 -2.458615
2012-04-26 14:16:52 51°13.636 2°56.019 17.014 0.88924 5.98924 -2.458615
2012-04-26 14:17:52 51°13.636 2°56.019 16.8782 0.930743 6.290422 -2.458615
2012-04-26 14:18:51 51°13.638 2°56.017 16.8664 0.873998 5.878252 -2.458615